sensor_id;sensor_type;location;lat;lon;timestamp;P1;durP1;ratioP1;P2;durP2;ratioP2
20411;SDS011;10365;52.578;8.138;2022-12-19T00:00:49;34.35;;;14.75;;
20411;SDS011;10365;52.578;8.138;2022-12-19T00:03:14;30.38;;;13.63;;
20411;SDS011;10365;52.578;8.138;2022-12-19T00:05:40;29.45;;;14.20;;
20411;SDS011;10365;52.578;8.138;2022-12-19T00:08:06;33.63;;;14.27;;
20411;SDS011;10365;52.578;8.138;2022-12-19T00:10:37;28.35;;;12.57;;
20411;SDS011;10365;52.578;8.138;2022-12-19T00:13:02;33.35;;;14.35;;
20411;SDS011;10365;52.578;8.138;2022-12-19T00:15:27;37.97;;;15.15;;
20411;SDS011;10365;52.578;8.138;2022-12-19T00:17:53;39.38;;;14.85;;
20411;SDS011;10365;52.578;8.138;2022-12-19T00:20:18;38.90;;;15.25;;
20411;SDS011;10365;52.578;8.138;2022-12-19T00:22:44;28.00;;;13.07;;
20411;SDS011;10365;52.578;8.138;2022-12-19T00:25:09;36.17;;;15.05;;
20411;SDS011;10365;52.578;8.138;2022-12-19T00:27:35;33.70;;;14.38;;
20411;SDS011;10365;52.578;8.138;2022-12-19T00:30:00;33.22;;;14.82;;
20411;SDS011;10365;52.578;8.138;2022-12-19T00:32:26;37.38;;;15.15;;
20411;SDS011;10365;52.578;8.138;2022-12-19T00:34:51;36.33;;;14.68;;
20411;SDS011;10365;52.578;8.138;2022-12-19T00:37:17;35.90;;;15.45;;
20411;SDS011;10365;52.578;8.138;2022-12-19T00:39:43;29.92;;;14.38;;
20411;SDS011;10365;52.578;8.138;2022-12-19T00:42:08;34.08;;;15.20;;
20411;SDS011;10365;52.578;8.138;2022-12-19T00:44:34;36.92;;;15.32;;
20411;SDS011;10365;52.578;8.138;2022-12-19T00:47:00;35.30;;;15.65;;
20411;SDS011;10365;52.578;8.138;2022-12-19T00:49:25;36.20;;;16.02;;
20411;SDS011;10365;52.578;8.138;2022-12-19T00:51:51;32.80;;;13.73;;
20411;SDS011;10365;52.578;8.138;2022-12-19T00:54:17;35.33;;;14.23;;
20411;SDS011;10365;52.578;8.138;2022-12-19T00:56:43;31.90;;;14.35;;
20411;SDS011;10365;52.578;8.138;2022-12-19T00:59:09;33.25;;;15.07;;
20411;SDS011;10365;52.578;8.138;2022-12-19T01:01:36;31.30;;;14.57;;
20411;SDS011;10365;52.578;8.138;2022-12-19T01:04:04;34.80;;;14.77;;
20411;SDS011;10365;52.578;8.138;2022-12-19T01:06:30;37.78;;;15.85;;
20411;SDS011;10365;52.578;8.138;2022-12-19T01:08:55;36.70;;;15.98;;
20411;SDS011;10365;52.578;8.138;2022-12-19T01:11:21;32.75;;;14.63;;
20411;SDS011;10365;52.578;8.138;2022-12-19T01:14:05;34.95;;;14.88;;
20411;SDS011;10365;52.578;8.138;2022-12-19T01:16:31;32.22;;;13.88;;
20411;SDS011;10365;52.578;8.138;2022-12-19T01:18:57;33.53;;;14.55;;
20411;SDS011;10365;52.578;8.138;2022-12-19T01:21:23;33.95;;;15.27;;
20411;SDS011;10365;52.578;8.138;2022-12-19T01:23:49;30.75;;;14.45;;
20411;SDS011;10365;52.578;8.138;2022-12-19T01:26:15;28.27;;;14.13;;
20411;SDS011;10365;52.578;8.138;2022-12-19T01:28:40;32.13;;;14.30;;
20411;SDS011;10365;52.578;8.138;2022-12-19T01:31:06;35.95;;;15.15;;
20411;SDS011;10365;52.578;8.138;2022-12-19T01:33:33;37.40;;;15.25;;
20411;SDS011;10365;52.578;8.138;2022-12-19T01:35:58;31.70;;;14.68;;
20411;SDS011;10365;52.578;8.138;2022-12-19T01:38:32;31.02;;;14.93;;
20411;SDS011;10365;52.578;8.138;2022-12-19T01:40:59;37.47;;;15.93;;
20411;SDS011;10365;52.578;8.138;2022-12-19T01:43:26;32.85;;;14.50;;
20411;SDS011;10365;52.578;8.138;2022-12-19T01:46:02;31.85;;;14.10;;
20411;SDS011;10365;52.578;8.138;2022-12-19T01:50:58;34.83;;;14.75;;
20411;SDS011;10365;52.578;8.138;2022-12-19T01:53:25;34.85;;;14.80;;
20411;SDS011;10365;52.578;8.138;2022-12-19T01:55:52;34.75;;;15.70;;
20411;SDS011;10365;52.578;8.138;2022-12-19T01:58:18;31.75;;;13.73;;
20411;SDS011;10365;52.578;8.138;2022-12-19T02:00:44;28.95;;;14.45;;
20411;SDS011;10365;52.578;8.138;2022-12-19T02:05:35;28.30;;;14.00;;
20411;SDS011;10365;52.578;8.138;2022-12-19T02:08:00;33.63;;;14.90;;
20411;SDS011;10365;52.578;8.138;2022-12-19T02:10:26;33.20;;;14.90;;
20411;SDS011;10365;52.578;8.138;2022-12-19T02:12:51;36.90;;;15.57;;
20411;SDS011;10365;52.578;8.138;2022-12-19T02:15:17;32.15;;;14.25;;
20411;SDS011;10365;52.578;8.138;2022-12-19T02:18:04;34.53;;;13.60;;
20411;SDS011;10365;52.578;8.138;2022-12-19T02:23:24;32.05;;;14.95;;
20411;SDS011;10365;52.578;8.138;2022-12-19T02:25:57;30.05;;;14.05;;
20411;SDS011;10365;52.578;8.138;2022-12-19T02:36:11;31.85;;;14.20;;
20411;SDS011;10365;52.578;8.138;2022-12-19T02:38:42;33.60;;;13.32;;
20411;SDS011;10365;52.578;8.138;2022-12-19T02:41:17;32.10;;;12.70;;
20411;SDS011;10365;52.578;8.138;2022-12-19T02:43:46;30.15;;;13.68;;
20411;SDS011;10365;52.578;8.138;2022-12-19T02:46:13;29.13;;;13.80;;
20411;SDS011;10365;52.578;8.138;2022-12-19T02:48:39;36.30;;;14.55;;
20411;SDS011;10365;52.578;8.138;2022-12-19T02:51:06;28.92;;;13.98;;
20411;SDS011;10365;52.578;8.138;2022-12-19T02:53:31;33.45;;;13.95;;
20411;SDS011;10365;52.578;8.138;2022-12-19T02:58:42;32.75;;;14.30;;
20411;SDS011;10365;52.578;8.138;2022-12-19T03:11:06;28.98;;;13.73;;
20411;SDS011;10365;52.578;8.138;2022-12-19T03:13:43;33.08;;;13.40;;
20411;SDS011;10365;52.578;8.138;2022-12-19T03:16:10;33.17;;;14.77;;
20411;SDS011;10365;52.578;8.138;2022-12-19T03:18:37;27.77;;;13.30;;
20411;SDS011;10365;52.578;8.138;2022-12-19T03:23:34;33.08;;;14.50;;
20411;SDS011;10365;52.578;8.138;2022-12-19T03:26:05;35.38;;;14.05;;
20411;SDS011;10365;52.578;8.138;2022-12-19T03:31:15;28.05;;;12.75;;
20411;SDS011;10365;52.578;8.138;2022-12-19T03:33:42;35.50;;;13.45;;
20411;SDS011;10365;52.578;8.138;2022-12-19T03:36:13;32.60;;;14.45;;
20411;SDS011;10365;52.578;8.138;2022-12-19T03:38:40;33.53;;;14.40;;
20411;SDS011;10365;52.578;8.138;2022-12-19T03:41:07;33.10;;;14.73;;
20411;SDS011;10365;52.578;8.138;2022-12-19T03:43:36;32.22;;;14.85;;
20411;SDS011;10365;52.578;8.138;2022-12-19T03:46:06;32.88;;;14.40;;
20411;SDS011;10365;52.578;8.138;2022-12-19T03:48:46;31.83;;;15.57;;
20411;SDS011;10365;52.578;8.138;2022-12-19T03:56:38;27.17;;;12.75;;
20411;SDS011;10365;52.578;8.138;2022-12-19T03:59:07;34.88;;;14.13;;
20411;SDS011;10365;52.578;8.138;2022-12-19T04:01:34;38.33;;;14.85;;
20411;SDS011;10365;52.578;8.138;2022-12-19T04:04:01;38.28;;;15.20;;
20411;SDS011;10365;52.578;8.138;2022-12-19T04:06:27;32.85;;;14.85;;
20411;SDS011;10365;52.578;8.138;2022-12-19T04:08:54;35.88;;;15.43;;
20411;SDS011;10365;52.578;8.138;2022-12-19T04:11:21;33.15;;;14.23;;
20411;SDS011;10365;52.578;8.138;2022-12-19T04:13:55;36.80;;;15.07;;
20411;SDS011;10365;52.578;8.138;2022-12-19T04:16:26;36.10;;;15.25;;
20411;SDS011;10365;52.578;8.138;2022-12-19T04:18:58;31.33;;;14.38;;
20411;SDS011;10365;52.578;8.138;2022-12-19T04:21:29;33.58;;;14.05;;
20411;SDS011;10365;52.578;8.138;2022-12-19T04:23:59;34.00;;;15.52;;
20411;SDS011;10365;52.578;8.138;2022-12-19T04:26:26;33.63;;;14.80;;
20411;SDS011;10365;52.578;8.138;2022-12-19T04:28:53;33.50;;;14.95;;
20411;SDS011;10365;52.578;8.138;2022-12-19T04:31:19;33.67;;;14.40;;
20411;SDS011;10365;52.578;8.138;2022-12-19T04:33:45;29.33;;;14.88;;
20411;SDS011;10365;52.578;8.138;2022-12-19T04:36:11;34.40;;;14.50;;
20411;SDS011;10365;52.578;8.138;2022-12-19T04:38:36;32.42;;;15.07;;
20411;SDS011;10365;52.578;8.138;2022-12-19T04:41:02;28.25;;;14.55;;
20411;SDS011;10365;52.578;8.138;2022-12-19T04:43:27;31.58;;;14.25;;
20411;SDS011;10365;52.578;8.138;2022-12-19T04:45:53;37.38;;;14.55;;
20411;SDS011;10365;52.578;8.138;2022-12-19T04:48:18;34.95;;;13.98;;
20411;SDS011;10365;52.578;8.138;2022-12-19T04:50:44;32.22;;;14.00;;
20411;SDS011;10365;52.578;8.138;2022-12-19T04:53:09;28.48;;;13.93;;
20411;SDS011;10365;52.578;8.138;2022-12-19T04:55:35;31.25;;;14.75;;
20411;SDS011;10365;52.578;8.138;2022-12-19T04:58:00;32.38;;;14.05;;
20411;SDS011;10365;52.578;8.138;2022-12-19T05:00:26;27.30;;;13.52;;
20411;SDS011;10365;52.578;8.138;2022-12-19T05:02:51;30.35;;;13.90;;
20411;SDS011;10365;52.578;8.138;2022-12-19T05:05:16;31.38;;;14.38;;
20411;SDS011;10365;52.578;8.138;2022-12-19T05:07:43;32.75;;;13.65;;
20411;SDS011;10365;52.578;8.138;2022-12-19T05:10:08;33.80;;;15.15;;
20411;SDS011;10365;52.578;8.138;2022-12-19T05:12:33;33.08;;;14.52;;
20411;SDS011;10365;52.578;8.138;2022-12-19T05:14:59;35.78;;;15.18;;
20411;SDS011;10365;52.578;8.138;2022-12-19T05:17:24;32.80;;;15.35;;
20411;SDS011;10365;52.578;8.138;2022-12-19T05:19:50;33.58;;;14.48;;
20411;SDS011;10365;52.578;8.138;2022-12-19T05:22:15;31.50;;;14.32;;
20411;SDS011;10365;52.578;8.138;2022-12-19T05:24:41;35.58;;;15.07;;
20411;SDS011;10365;52.578;8.138;2022-12-19T05:27:06;28.33;;;13.05;;
20411;SDS011;10365;52.578;8.138;2022-12-19T05:29:32;32.75;;;14.18;;
20411;SDS011;10365;52.578;8.138;2022-12-19T05:31:57;28.85;;;13.82;;
20411;SDS011;10365;52.578;8.138;2022-12-19T05:34:23;31.98;;;14.25;;
20411;SDS011;10365;52.578;8.138;2022-12-19T05:36:49;36.53;;;14.90;;
20411;SDS011;10365;52.578;8.138;2022-12-19T05:39:14;32.67;;;13.85;;
20411;SDS011;10365;52.578;8.138;2022-12-19T05:41:39;34.85;;;14.00;;
20411;SDS011;10365;52.578;8.138;2022-12-19T05:44:05;29.55;;;13.32;;
20411;SDS011;10365;52.578;8.138;2022-12-19T05:46:31;37.03;;;15.18;;
20411;SDS011;10365;52.578;8.138;2022-12-19T05:48:56;28.95;;;13.23;;
20411;SDS011;10365;52.578;8.138;2022-12-19T05:51:22;31.17;;;13.77;;
20411;SDS011;10365;52.578;8.138;2022-12-19T05:53:47;26.92;;;13.15;;
20411;SDS011;10365;52.578;8.138;2022-12-19T05:56:16;30.63;;;15.15;;
20411;SDS011;10365;52.578;8.138;2022-12-19T05:58:42;32.85;;;15.73;;
20411;SDS011;10365;52.578;8.138;2022-12-19T06:01:16;33.28;;;14.43;;
20411;SDS011;10365;52.578;8.138;2022-12-19T06:03:42;34.92;;;15.25;;
20411;SDS011;10365;52.578;8.138;2022-12-19T06:06:09;35.35;;;14.18;;
20411;SDS011;10365;52.578;8.138;2022-12-19T06:08:35;28.80;;;14.13;;
20411;SDS011;10365;52.578;8.138;2022-12-19T06:11:01;33.42;;;15.35;;
20411;SDS011;10365;52.578;8.138;2022-12-19T06:13:27;28.67;;;14.23;;
20411;SDS011;10365;52.578;8.138;2022-12-19T06:15:56;36.05;;;15.90;;
20411;SDS011;10365;52.578;8.138;2022-12-19T06:18:22;33.60;;;14.88;;
20411;SDS011;10365;52.578;8.138;2022-12-19T06:20:54;39.95;;;15.15;;
20411;SDS011;10365;52.578;8.138;2022-12-19T06:23:20;30.38;;;14.07;;
20411;SDS011;10365;52.578;8.138;2022-12-19T06:25:46;31.05;;;14.00;;
20411;SDS011;10365;52.578;8.138;2022-12-19T06:28:11;30.42;;;14.18;;
20411;SDS011;10365;52.578;8.138;2022-12-19T06:30:37;33.17;;;15.18;;
20411;SDS011;10365;52.578;8.138;2022-12-19T06:33:03;30.77;;;14.52;;
20411;SDS011;10365;52.578;8.138;2022-12-19T06:35:28;34.60;;;14.63;;
20411;SDS011;10365;52.578;8.138;2022-12-19T06:37:53;31.95;;;15.93;;
20411;SDS011;10365;52.578;8.138;2022-12-19T06:40:19;35.47;;;16.10;;
20411;SDS011;10365;52.578;8.138;2022-12-19T06:43:04;31.65;;;15.65;;
20411;SDS011;10365;52.578;8.138;2022-12-19T06:45:30;33.75;;;15.30;;
20411;SDS011;10365;52.578;8.138;2022-12-19T06:47:56;35.25;;;15.35;;
20411;SDS011;10365;52.578;8.138;2022-12-19T06:50:22;32.08;;;15.23;;
20411;SDS011;10365;52.578;8.138;2022-12-19T06:52:47;32.10;;;14.55;;
20411;SDS011;10365;52.578;8.138;2022-12-19T06:55:13;30.75;;;14.90;;
20411;SDS011;10365;52.578;8.138;2022-12-19T06:57:38;31.63;;;15.05;;
20411;SDS011;10365;52.578;8.138;2022-12-19T07:00:10;33.03;;;14.57;;
20411;SDS011;10365;52.578;8.138;2022-12-19T07:02:37;33.63;;;16.52;;
20411;SDS011;10365;52.578;8.138;2022-12-19T07:05:03;36.65;;;16.23;;
20411;SDS011;10365;52.578;8.138;2022-12-19T07:07:30;34.70;;;16.55;;
20411;SDS011;10365;52.578;8.138;2022-12-19T07:09:57;36.80;;;16.98;;
20411;SDS011;10365;52.578;8.138;2022-12-19T07:12:23;32.78;;;16.52;;
20411;SDS011;10365;52.578;8.138;2022-12-19T07:14:48;30.58;;;15.73;;
20411;SDS011;10365;52.578;8.138;2022-12-19T07:17:13;39.95;;;17.40;;
20411;SDS011;10365;52.578;8.138;2022-12-19T07:19:39;37.67;;;17.05;;
20411;SDS011;10365;52.578;8.138;2022-12-19T07:22:04;31.88;;;16.30;;
20411;SDS011;10365;52.578;8.138;2022-12-19T07:24:30;37.05;;;18.13;;
20411;SDS011;10365;52.578;8.138;2022-12-19T07:26:56;37.17;;;17.30;;
20411;SDS011;10365;52.578;8.138;2022-12-19T07:29:22;35.55;;;16.42;;
20411;SDS011;10365;52.578;8.138;2022-12-19T07:31:47;32.67;;;16.60;;
20411;SDS011;10365;52.578;8.138;2022-12-19T07:34:13;36.60;;;16.35;;
20411;SDS011;10365;52.578;8.138;2022-12-19T07:36:38;35.55;;;18.38;;
20411;SDS011;10365;52.578;8.138;2022-12-19T07:39:04;33.33;;;16.42;;
20411;SDS011;10365;52.578;8.138;2022-12-19T07:41:29;35.15;;;16.67;;
20411;SDS011;10365;52.578;8.138;2022-12-19T07:43:56;33.25;;;17.98;;
20411;SDS011;10365;52.578;8.138;2022-12-19T07:46:22;36.20;;;17.55;;
20411;SDS011;10365;52.578;8.138;2022-12-19T07:48:47;39.63;;;18.30;;
20411;SDS011;10365;52.578;8.138;2022-12-19T07:51:13;35.58;;;16.52;;
20411;SDS011;10365;52.578;8.138;2022-12-19T07:53:38;37.25;;;16.80;;
20411;SDS011;10365;52.578;8.138;2022-12-19T07:56:04;32.40;;;16.80;;
20411;SDS011;10365;52.578;8.138;2022-12-19T07:58:29;36.88;;;17.88;;
20411;SDS011;10365;52.578;8.138;2022-12-19T08:00:55;36.92;;;18.13;;
20411;SDS011;10365;52.578;8.138;2022-12-19T08:03:21;35.33;;;17.98;;
20411;SDS011;10365;52.578;8.138;2022-12-19T08:05:47;35.13;;;18.05;;
20411;SDS011;10365;52.578;8.138;2022-12-19T08:08:12;37.30;;;18.45;;
20411;SDS011;10365;52.578;8.138;2022-12-19T08:10:38;36.10;;;17.00;;
20411;SDS011;10365;52.578;8.138;2022-12-19T08:13:05;38.95;;;17.40;;
20411;SDS011;10365;52.578;8.138;2022-12-19T08:15:31;34.50;;;16.85;;
20411;SDS011;10365;52.578;8.138;2022-12-19T08:17:56;37.58;;;16.85;;
20411;SDS011;10365;52.578;8.138;2022-12-19T08:20:22;32.65;;;17.40;;
20411;SDS011;10365;52.578;8.138;2022-12-19T08:22:47;37.30;;;17.83;;
20411;SDS011;10365;52.578;8.138;2022-12-19T08:25:12;38.92;;;18.90;;
20411;SDS011;10365;52.578;8.138;2022-12-19T08:27:38;33.25;;;18.13;;
20411;SDS011;10365;52.578;8.138;2022-12-19T08:30:03;35.28;;;17.08;;
20411;SDS011;10365;52.578;8.138;2022-12-19T08:32:29;36.15;;;17.67;;
20411;SDS011;10365;52.578;8.138;2022-12-19T08:34:55;30.17;;;17.02;;
20411;SDS011;10365;52.578;8.138;2022-12-19T08:37:21;29.83;;;17.65;;
20411;SDS011;10365;52.578;8.138;2022-12-19T08:39:47;35.47;;;17.55;;
20411;SDS011;10365;52.578;8.138;2022-12-19T08:42:12;31.30;;;16.95;;
20411;SDS011;10365;52.578;8.138;2022-12-19T08:44:38;28.33;;;16.02;;
20411;SDS011;10365;52.578;8.138;2022-12-19T08:47:03;35.75;;;18.25;;
20411;SDS011;10365;52.578;8.138;2022-12-19T08:49:29;37.70;;;18.40;;
20411;SDS011;10365;52.578;8.138;2022-12-19T08:51:54;31.75;;;16.95;;
20411;SDS011;10365;52.578;8.138;2022-12-19T08:54:20;36.67;;;18.20;;
20411;SDS011;10365;52.578;8.138;2022-12-19T08:56:45;36.20;;;17.85;;
20411;SDS011;10365;52.578;8.138;2022-12-19T08:59:10;33.80;;;17.63;;
20411;SDS011;10365;52.578;8.138;2022-12-19T09:01:36;34.60;;;18.30;;
20411;SDS011;10365;52.578;8.138;2022-12-19T09:04:01;29.55;;;17.23;;
20411;SDS011;10365;52.578;8.138;2022-12-19T09:06:27;34.83;;;18.10;;
20411;SDS011;10365;52.578;8.138;2022-12-19T09:08:52;29.38;;;16.20;;
20411;SDS011;10365;52.578;8.138;2022-12-19T09:11:18;30.35;;;16.80;;
20411;SDS011;10365;52.578;8.138;2022-12-19T09:13:45;38.22;;;18.60;;
20411;SDS011;10365;52.578;8.138;2022-12-19T09:16:12;34.33;;;18.17;;
20411;SDS011;10365;52.578;8.138;2022-12-19T09:18:38;30.10;;;17.35;;
20411;SDS011;10365;52.578;8.138;2022-12-19T09:21:04;32.45;;;17.17;;
20411;SDS011;10365;52.578;8.138;2022-12-19T09:23:29;34.65;;;18.10;;
20411;SDS011;10365;52.578;8.138;2022-12-19T09:25:56;35.60;;;17.02;;
20411;SDS011;10365;52.578;8.138;2022-12-19T09:28:22;30.83;;;17.77;;
20411;SDS011;10365;52.578;8.138;2022-12-19T09:30:57;27.35;;;16.63;;
20411;SDS011;10365;52.578;8.138;2022-12-19T09:33:23;32.38;;;16.70;;
20411;SDS011;10365;52.578;8.138;2022-12-19T09:35:52;32.65;;;17.95;;
20411;SDS011;10365;52.578;8.138;2022-12-19T09:38:18;35.65;;;19.77;;
20411;SDS011;10365;52.578;8.138;2022-12-19T09:43:21;31.08;;;18.75;;
20411;SDS011;10365;52.578;8.138;2022-12-19T09:45:58;33.78;;;20.45;;
20411;SDS011;10365;52.578;8.138;2022-12-19T09:48:25;34.75;;;17.77;;
20411;SDS011;10365;52.578;8.138;2022-12-19T09:50:53;29.10;;;16.50;;
20411;SDS011;10365;52.578;8.138;2022-12-19T09:53:26;28.85;;;16.33;;
20411;SDS011;10365;52.578;8.138;2022-12-19T09:55:52;29.33;;;16.30;;
20411;SDS011;10365;52.578;8.138;2022-12-19T09:58:34;32.67;;;17.40;;
20411;SDS011;10365;52.578;8.138;2022-12-19T10:01:03;30.77;;;16.80;;
20411;SDS011;10365;52.578;8.138;2022-12-19T10:03:31;31.85;;;17.35;;
20411;SDS011;10365;52.578;8.138;2022-12-19T10:06:05;46.47;;;21.10;;
20411;SDS011;10365;52.578;8.138;2022-12-19T10:08:32;40.90;;;21.85;;
20411;SDS011;10365;52.578;8.138;2022-12-19T10:18:52;37.28;;;19.70;;
20411;SDS011;10365;52.578;8.138;2022-12-19T10:26:39;34.97;;;18.05;;
20411;SDS011;10365;52.578;8.138;2022-12-19T10:36:26;38.03;;;18.77;;
20411;SDS011;10365;52.578;8.138;2022-12-19T10:39:42;39.83;;;19.80;;
20411;SDS011;10365;52.578;8.138;2022-12-19T10:41:43;35.85;;;18.05;;
20411;SDS011;10365;52.578;8.138;2022-12-19T10:44:09;30.42;;;16.83;;
20411;SDS011;10365;52.578;8.138;2022-12-19T10:49:01;34.85;;;18.77;;
20411;SDS011;10365;52.578;8.138;2022-12-19T10:51:31;37.40;;;18.17;;
20411;SDS011;10365;52.578;8.138;2022-12-19T10:53:57;35.25;;;18.38;;
20411;SDS011;10365;52.578;8.138;2022-12-19T10:56:25;35.15;;;20.80;;
20411;SDS011;10365;52.578;8.138;2022-12-19T10:58:52;49.00;;;26.30;;
20411;SDS011;10365;52.578;8.138;2022-12-19T11:03:50;33.95;;;17.77;;
20411;SDS011;10365;52.578;8.138;2022-12-19T11:11:58;33.05;;;16.75;;
20411;SDS011;10365;52.578;8.138;2022-12-19T11:14:24;34.55;;;16.33;;
20411;SDS011;10365;52.578;8.138;2022-12-19T11:16:50;31.17;;;15.75;;
20411;SDS011;10365;52.578;8.138;2022-12-19T11:19:35;37.17;;;15.75;;
20411;SDS011;10365;52.578;8.138;2022-12-19T11:22:04;27.02;;;15.80;;
20411;SDS011;10365;52.578;8.138;2022-12-19T11:24:34;27.52;;;15.15;;
20411;SDS011;10365;52.578;8.138;2022-12-19T11:27:00;34.15;;;15.57;;
20411;SDS011;10365;52.578;8.138;2022-12-19T11:31:56;28.98;;;15.75;;
20411;SDS011;10365;52.578;8.138;2022-12-19T11:34:23;25.55;;;14.43;;
20411;SDS011;10365;52.578;8.138;2022-12-19T11:39:19;28.42;;;14.80;;
20411;SDS011;10365;52.578;8.138;2022-12-19T11:42:48;33.03;;;15.32;;
20411;SDS011;10365;52.578;8.138;2022-12-19T11:47:16;26.77;;;14.73;;
20411;SDS011;10365;52.578;8.138;2022-12-19T11:49:50;26.75;;;15.27;;
20411;SDS011;10365;52.578;8.138;2022-12-19T11:54:55;29.17;;;14.93;;
20411;SDS011;10365;52.578;8.138;2022-12-19T11:57:23;28.65;;;14.38;;
20411;SDS011;10365;52.578;8.138;2022-12-19T11:59:49;31.73;;;15.60;;
20411;SDS011;10365;52.578;8.138;2022-12-19T12:07:36;46.67;;;26.40;;
20411;SDS011;10365;52.578;8.138;2022-12-19T12:12:50;33.22;;;20.25;;
20411;SDS011;10365;52.578;8.138;2022-12-19T12:25:28;28.15;;;16.75;;
20411;SDS011;10365;52.578;8.138;2022-12-19T12:30:27;23.70;;;14.82;;
20411;SDS011;10365;52.578;8.138;2022-12-19T12:35:34;23.65;;;14.15;;
20411;SDS011;10365;52.578;8.138;2022-12-19T12:43:04;25.33;;;13.52;;
20411;SDS011;10365;52.578;8.138;2022-12-19T12:45:37;25.27;;;14.52;;
20411;SDS011;10365;52.578;8.138;2022-12-19T12:48:03;24.35;;;14.07;;
20411;SDS011;10365;52.578;8.138;2022-12-19T12:50:35;25.25;;;14.52;;
20411;SDS011;10365;52.578;8.138;2022-12-19T12:53:05;26.50;;;15.77;;
20411;SDS011;10365;52.578;8.138;2022-12-19T12:55:32;28.35;;;15.63;;
20411;SDS011;10365;52.578;8.138;2022-12-19T12:57:59;27.35;;;14.73;;
20411;SDS011;10365;52.578;8.138;2022-12-19T13:00:28;22.92;;;14.77;;
20411;SDS011;10365;52.578;8.138;2022-12-19T13:08:01;28.63;;;19.10;;
20411;SDS011;10365;52.578;8.138;2022-12-19T13:10:30;39.45;;;21.88;;
20411;SDS011;10365;52.578;8.138;2022-12-19T13:13:10;26.38;;;16.65;;
20411;SDS011;10365;52.578;8.138;2022-12-19T13:15:39;31.13;;;17.30;;
20411;SDS011;10365;52.578;8.138;2022-12-19T13:20:44;23.63;;;13.75;;
20411;SDS011;10365;52.578;8.138;2022-12-19T13:23:31;29.80;;;16.58;;
20411;SDS011;10365;52.578;8.138;2022-12-19T13:25:57;25.50;;;14.88;;
20411;SDS011;10365;52.578;8.138;2022-12-19T13:38:56;22.95;;;13.13;;
20411;SDS011;10365;52.578;8.138;2022-12-19T13:41:29;25.25;;;14.05;;
20411;SDS011;10365;52.578;8.138;2022-12-19T13:44:22;27.02;;;14.27;;
20411;SDS011;10365;52.578;8.138;2022-12-19T13:46:48;25.90;;;13.25;;
20411;SDS011;10365;52.578;8.138;2022-12-19T13:49:29;20.90;;;13.30;;
20411;SDS011;10365;52.578;8.138;2022-12-19T13:51:56;24.15;;;13.88;;
20411;SDS011;10365;52.578;8.138;2022-12-19T13:54:26;25.35;;;12.90;;
20411;SDS011;10365;52.578;8.138;2022-12-19T13:56:52;23.70;;;14.23;;
20411;SDS011;10365;52.578;8.138;2022-12-19T13:59:19;24.52;;;13.10;;
20411;SDS011;10365;52.578;8.138;2022-12-19T14:01:45;24.40;;;13.90;;
20411;SDS011;10365;52.578;8.138;2022-12-19T14:04:23;24.45;;;13.13;;
20411;SDS011;10365;52.578;8.138;2022-12-19T14:06:51;24.42;;;13.02;;
20411;SDS011;10365;52.578;8.138;2022-12-19T14:11:46;22.20;;;13.05;;
20411;SDS011;10365;52.578;8.138;2022-12-19T14:14:14;20.80;;;12.68;;
20411;SDS011;10365;52.578;8.138;2022-12-19T14:17:06;18.60;;;10.90;;
20411;SDS011;10365;52.578;8.138;2022-12-19T14:19:36;19.13;;;12.10;;
20411;SDS011;10365;52.578;8.138;2022-12-19T14:24:57;21.63;;;11.23;;
20411;SDS011;10365;52.578;8.138;2022-12-19T14:27:29;18.65;;;11.20;;
20411;SDS011;10365;52.578;8.138;2022-12-19T14:29:57;20.58;;;11.20;;
20411;SDS011;10365;52.578;8.138;2022-12-19T14:32:23;20.00;;;11.50;;
20411;SDS011;10365;52.578;8.138;2022-12-19T14:34:50;19.70;;;11.20;;
20411;SDS011;10365;52.578;8.138;2022-12-19T14:37:26;22.95;;;13.38;;
20411;SDS011;10365;52.578;8.138;2022-12-19T14:39:52;17.42;;;10.65;;
20411;SDS011;10365;52.578;8.138;2022-12-19T14:42:22;16.20;;;10.38;;
20411;SDS011;10365;52.578;8.138;2022-12-19T14:47:51;32.28;;;17.15;;
20411;SDS011;10365;52.578;8.138;2022-12-19T14:50:25;22.67;;;14.15;;
20411;SDS011;10365;52.578;8.138;2022-12-19T14:53:12;26.90;;;14.00;;
20411;SDS011;10365;52.578;8.138;2022-12-19T14:55:40;16.38;;;9.73;;
20411;SDS011;10365;52.578;8.138;2022-12-19T14:58:07;15.40;;;9.32;;
20411;SDS011;10365;52.578;8.138;2022-12-19T15:00:45;20.70;;;9.90;;
20411;SDS011;10365;52.578;8.138;2022-12-19T15:03:21;14.32;;;9.00;;
20411;SDS011;10365;52.578;8.138;2022-12-19T15:05:47;15.82;;;8.77;;
20411;SDS011;10365;52.578;8.138;2022-12-19T15:08:15;14.45;;;8.98;;
20411;SDS011;10365;52.578;8.138;2022-12-19T15:10:48;16.92;;;8.43;;
20411;SDS011;10365;52.578;8.138;2022-12-19T15:18:22;16.83;;;8.82;;
20411;SDS011;10365;52.578;8.138;2022-12-19T15:20:49;13.93;;;7.82;;
20411;SDS011;10365;52.578;8.138;2022-12-19T15:23:15;17.35;;;9.10;;
20411;SDS011;10365;52.578;8.138;2022-12-19T15:25:40;13.63;;;7.13;;
20411;SDS011;10365;52.578;8.138;2022-12-19T15:28:10;12.60;;;7.13;;
20411;SDS011;10365;52.578;8.138;2022-12-19T15:30:36;16.73;;;8.30;;
20411;SDS011;10365;52.578;8.138;2022-12-19T15:33:02;16.50;;;7.50;;
20411;SDS011;10365;52.578;8.138;2022-12-19T15:35:27;13.88;;;7.40;;
20411;SDS011;10365;52.578;8.138;2022-12-19T15:37:53;17.10;;;8.55;;
20411;SDS011;10365;52.578;8.138;2022-12-19T15:40:18;12.85;;;7.18;;
20411;SDS011;10365;52.578;8.138;2022-12-19T15:42:45;11.40;;;6.03;;
20411;SDS011;10365;52.578;8.138;2022-12-19T15:45:15;11.15;;;6.45;;
20411;SDS011;10365;52.578;8.138;2022-12-19T15:47:41;32.40;;;18.40;;
20411;SDS011;10365;52.578;8.138;2022-12-19T15:50:14;21.60;;;13.15;;
20411;SDS011;10365;52.578;8.138;2022-12-19T15:52:40;12.68;;;7.13;;
20411;SDS011;10365;52.578;8.138;2022-12-19T15:55:07;9.48;;;6.15;;
20411;SDS011;10365;52.578;8.138;2022-12-19T15:57:34;10.20;;;6.15;;
20411;SDS011;10365;52.578;8.138;2022-12-19T16:00:02;11.98;;;6.85;;
20411;SDS011;10365;52.578;8.138;2022-12-19T16:02:30;10.65;;;6.30;;
20411;SDS011;10365;52.578;8.138;2022-12-19T16:04:57;13.13;;;6.82;;
20411;SDS011;10365;52.578;8.138;2022-12-19T16:07:23;11.02;;;6.25;;
20411;SDS011;10365;52.578;8.138;2022-12-19T16:09:50;15.18;;;8.02;;
20411;SDS011;10365;52.578;8.138;2022-12-19T16:12:19;15.48;;;6.80;;
20411;SDS011;10365;52.578;8.138;2022-12-19T16:14:47;13.30;;;6.25;;
20411;SDS011;10365;52.578;8.138;2022-12-19T16:17:20;11.95;;;6.88;;
20411;SDS011;10365;52.578;8.138;2022-12-19T16:19:46;12.88;;;5.95;;
20411;SDS011;10365;52.578;8.138;2022-12-19T16:22:14;10.38;;;6.45;;
20411;SDS011;10365;52.578;8.138;2022-12-19T16:24:40;15.75;;;7.43;;
20411;SDS011;10365;52.578;8.138;2022-12-19T16:27:08;17.90;;;8.85;;
20411;SDS011;10365;52.578;8.138;2022-12-19T16:29:34;10.48;;;7.25;;
20411;SDS011;10365;52.578;8.138;2022-12-19T16:32:00;15.23;;;7.88;;
20411;SDS011;10365;52.578;8.138;2022-12-19T16:34:25;12.10;;;6.55;;
20411;SDS011;10365;52.578;8.138;2022-12-19T16:36:51;11.23;;;6.80;;
20411;SDS011;10365;52.578;8.138;2022-12-19T16:39:17;11.75;;;6.57;;
20411;SDS011;10365;52.578;8.138;2022-12-19T16:41:42;13.23;;;7.18;;
20411;SDS011;10365;52.578;8.138;2022-12-19T16:44:17;15.73;;;6.70;;
20411;SDS011;10365;52.578;8.138;2022-12-19T16:46:43;13.05;;;6.75;;
20411;SDS011;10365;52.578;8.138;2022-12-19T16:49:10;15.45;;;7.78;;